Indialantic, Florida
Current Conditions -  °F | °C
As of 3:53 AM on Thursday 27 Nov 2014 (Local Time) from KMLB Reporting Station
Clear Clear  
Wind Chill: 10°   Ceiling: Unl
Heat Index: 10°   Visibility: 10mi
Dew Point:   Wind: 10mph
Humidity: 89%   Direction: 310°NW
Pressure: 30.23"   Gusts: NA
Location:  28.09°N, 80.57°W
Report Text: KMLB 270853Z AUTO 31009KT 10SM CLR 10/08 A3023 RMK AO2 SLP236 T01000083 53008
Loading
Personal Weather Stations






























Interactive Weather Map New forecast layout! Learn more

10-Day Weather Forecast

Advertisements
Track Severe Weather on mobile